sensor_id;sensor_type;location;lat;lon;timestamp;P1;durP1;ratioP1;P2;durP2;ratioP2
10335;SDS011;5213;53.548;9.930;2023-04-21T00:01:15;15.30;;;10.38;;
10335;SDS011;5213;53.548;9.930;2023-04-21T00:03:42;20.38;;;10.55;;
10335;SDS011;5213;53.548;9.930;2023-04-21T00:06:08;16.92;;;10.90;;
10335;SDS011;5213;53.548;9.930;2023-04-21T00:08:34;14.48;;;10.57;;
10335;SDS011;5213;53.548;9.930;2023-04-21T00:11:07;13.23;;;9.60;;
10335;SDS011;5213;53.548;9.930;2023-04-21T00:13:34;13.65;;;10.55;;
10335;SDS011;5213;53.548;9.930;2023-04-21T00:16:00;15.00;;;9.75;;
10335;SDS011;5213;53.548;9.930;2023-04-21T00:18:27;14.60;;;10.05;;
10335;SDS011;5213;53.548;9.930;2023-04-21T00:20:53;13.73;;;9.48;;
10335;SDS011;5213;53.548;9.930;2023-04-21T00:23:19;13.35;;;9.65;;
10335;SDS011;5213;53.548;9.930;2023-04-21T00:25:45;13.57;;;9.73;;
10335;SDS011;5213;53.548;9.930;2023-04-21T00:28:11;13.45;;;9.45;;
10335;SDS011;5213;53.548;9.930;2023-04-21T00:30:37;14.05;;;9.85;;
10335;SDS011;5213;53.548;9.930;2023-04-21T00:33:03;13.90;;;9.57;;
10335;SDS011;5213;53.548;9.930;2023-04-21T00:35:29;14.73;;;10.38;;
10335;SDS011;5213;53.548;9.930;2023-04-21T00:37:55;11.32;;;9.18;;
10335;SDS011;5213;53.548;9.930;2023-04-21T00:40:21;14.13;;;8.57;;
10335;SDS011;5213;53.548;9.930;2023-04-21T00:42:47;15.15;;;9.45;;
10335;SDS011;5213;53.548;9.930;2023-04-21T00:45:13;12.65;;;9.40;;
10335;SDS011;5213;53.548;9.930;2023-04-21T00:47:39;16.50;;;9.65;;
10335;SDS011;5213;53.548;9.930;2023-04-21T00:50:05;12.57;;;9.45;;
10335;SDS011;5213;53.548;9.930;2023-04-21T00:52:32;15.98;;;9.57;;
10335;SDS011;5213;53.548;9.930;2023-04-21T00:54:58;13.95;;;9.48;;
10335;SDS011;5213;53.548;9.930;2023-04-21T00:57:24;15.55;;;8.90;;
10335;SDS011;5213;53.548;9.930;2023-04-21T00:59:53;12.98;;;9.88;;
10335;SDS011;5213;53.548;9.930;2023-04-21T01:02:19;15.80;;;9.73;;
10335;SDS011;5213;53.548;9.930;2023-04-21T01:04:46;14.38;;;8.98;;
10335;SDS011;5213;53.548;9.930;2023-04-21T01:07:12;13.50;;;10.02;;
10335;SDS011;5213;53.548;9.930;2023-04-21T01:09:38;15.30;;;9.15;;
10335;SDS011;5213;53.548;9.930;2023-04-21T01:12:05;14.27;;;9.73;;
10335;SDS011;5213;53.548;9.930;2023-04-21T01:14:31;16.35;;;8.73;;
10335;SDS011;5213;53.548;9.930;2023-04-21T01:16:57;15.32;;;10.23;;
10335;SDS011;5213;53.548;9.930;2023-04-21T01:19:23;13.23;;;9.25;;
10335;SDS011;5213;53.548;9.930;2023-04-21T01:21:51;11.32;;;9.23;;
10335;SDS011;5213;53.548;9.930;2023-04-21T01:24:34;14.25;;;9.48;;
10335;SDS011;5213;53.548;9.930;2023-04-21T01:27:00;11.48;;;9.18;;
10335;SDS011;5213;53.548;9.930;2023-04-21T01:29:26;14.52;;;9.25;;
10335;SDS011;5213;53.548;9.930;2023-04-21T01:31:52;16.48;;;8.95;;
10335;SDS011;5213;53.548;9.930;2023-04-21T01:34:18;13.20;;;9.15;;
10335;SDS011;5213;53.548;9.930;2023-04-21T01:36:44;14.50;;;9.18;;
10335;SDS011;5213;53.548;9.930;2023-04-21T01:39:10;12.13;;;9.43;;
10335;SDS011;5213;53.548;9.930;2023-04-21T01:41:36;12.40;;;8.57;;
10335;SDS011;5213;53.548;9.930;2023-04-21T01:44:02;14.35;;;9.45;;
10335;SDS011;5213;53.548;9.930;2023-04-21T01:46:28;13.82;;;9.75;;
10335;SDS011;5213;53.548;9.930;2023-04-21T01:48:54;13.93;;;9.52;;
10335;SDS011;5213;53.548;9.930;2023-04-21T01:51:20;13.15;;;9.20;;
10335;SDS011;5213;53.548;9.930;2023-04-21T01:53:46;18.75;;;9.80;;
10335;SDS011;5213;53.548;9.930;2023-04-21T01:56:13;12.98;;;8.95;;
10335;SDS011;5213;53.548;9.930;2023-04-21T01:58:39;11.70;;;8.68;;
10335;SDS011;5213;53.548;9.930;2023-04-21T02:01:05;10.40;;;9.02;;
10335;SDS011;5213;53.548;9.930;2023-04-21T02:03:31;12.27;;;8.68;;
10335;SDS011;5213;53.548;9.930;2023-04-21T02:05:57;11.48;;;9.27;;
10335;SDS011;5213;53.548;9.930;2023-04-21T02:08:23;12.82;;;9.10;;
10335;SDS011;5213;53.548;9.930;2023-04-21T02:10:49;10.65;;;9.10;;
10335;SDS011;5213;53.548;9.930;2023-04-21T02:13:15;13.43;;;9.35;;
10335;SDS011;5213;53.548;9.930;2023-04-21T02:15:41;11.95;;;9.00;;
10335;SDS011;5213;53.548;9.930;2023-04-21T02:18:07;12.05;;;8.90;;
10335;SDS011;5213;53.548;9.930;2023-04-21T02:20:34;10.15;;;8.35;;
10335;SDS011;5213;53.548;9.930;2023-04-21T02:23:00;15.05;;;8.98;;
10335;SDS011;5213;53.548;9.930;2023-04-21T02:25:26;11.40;;;9.02;;
10335;SDS011;5213;53.548;9.930;2023-04-21T02:27:53;11.20;;;8.57;;
10335;SDS011;5213;53.548;9.930;2023-04-21T02:30:19;11.38;;;8.05;;
10335;SDS011;5213;53.548;9.930;2023-04-21T02:32:45;14.60;;;8.73;;
10335;SDS011;5213;53.548;9.930;2023-04-21T02:35:11;13.20;;;8.93;;
10335;SDS011;5213;53.548;9.930;2023-04-21T02:37:37;13.00;;;8.95;;
10335;SDS011;5213;53.548;9.930;2023-04-21T02:40:03;11.73;;;8.68;;
10335;SDS011;5213;53.548;9.930;2023-04-21T02:42:31;13.77;;;8.73;;
10335;SDS011;5213;53.548;9.930;2023-04-21T02:44:58;10.35;;;8.70;;
10335;SDS011;5213;53.548;9.930;2023-04-21T02:47:24;13.63;;;8.32;;
10335;SDS011;5213;53.548;9.930;2023-04-21T02:49:50;15.98;;;8.88;;
10335;SDS011;5213;53.548;9.930;2023-04-21T02:52:16;12.73;;;8.35;;
10335;SDS011;5213;53.548;9.930;2023-04-21T02:54:42;15.13;;;8.90;;
10335;SDS011;5213;53.548;9.930;2023-04-21T02:57:08;12.23;;;9.00;;
10335;SDS011;5213;53.548;9.930;2023-04-21T02:59:34;12.60;;;9.00;;
10335;SDS011;5213;53.548;9.930;2023-04-21T03:02:00;14.27;;;9.02;;
10335;SDS011;5213;53.548;9.930;2023-04-21T03:04:26;13.40;;;9.30;;
10335;SDS011;5213;53.548;9.930;2023-04-21T03:06:52;13.68;;;8.68;;
10335;SDS011;5213;53.548;9.930;2023-04-21T03:09:18;13.32;;;8.93;;
10335;SDS011;5213;53.548;9.930;2023-04-21T03:11:44;18.45;;;8.95;;
10335;SDS011;5213;53.548;9.930;2023-04-21T03:14:10;12.15;;;8.93;;
10335;SDS011;5213;53.548;9.930;2023-04-21T03:16:36;11.70;;;8.68;;
10335;SDS011;5213;53.548;9.930;2023-04-21T03:19:02;11.80;;;8.60;;
10335;SDS011;5213;53.548;9.930;2023-04-21T03:21:29;12.63;;;8.55;;
10335;SDS011;5213;53.548;9.930;2023-04-21T03:23:55;12.55;;;9.18;;
10335;SDS011;5213;53.548;9.930;2023-04-21T03:26:21;13.07;;;8.90;;
10335;SDS011;5213;53.548;9.930;2023-04-21T03:28:47;9.98;;;8.60;;
10335;SDS011;5213;53.548;9.930;2023-04-21T03:31:13;14.60;;;9.05;;
10335;SDS011;5213;53.548;9.930;2023-04-21T03:33:39;12.10;;;9.07;;
10335;SDS011;5213;53.548;9.930;2023-04-21T03:36:05;10.05;;;8.75;;
10335;SDS011;5213;53.548;9.930;2023-04-21T03:38:31;10.75;;;8.80;;
10335;SDS011;5213;53.548;9.930;2023-04-21T03:40:57;12.82;;;8.70;;
10335;SDS011;5213;53.548;9.930;2023-04-21T03:43:23;11.57;;;8.98;;
10335;SDS011;5213;53.548;9.930;2023-04-21T03:45:49;12.45;;;8.68;;
10335;SDS011;5213;53.548;9.930;2023-04-21T03:48:15;13.73;;;8.88;;
10335;SDS011;5213;53.548;9.930;2023-04-21T03:50:41;13.18;;;8.98;;
10335;SDS011;5213;53.548;9.930;2023-04-21T03:53:07;9.50;;;8.52;;
10335;SDS011;5213;53.548;9.930;2023-04-21T03:55:33;12.05;;;9.00;;
10335;SDS011;5213;53.548;9.930;2023-04-21T03:57:59;12.20;;;8.80;;
10335;SDS011;5213;53.548;9.930;2023-04-21T04:00:25;15.82;;;9.70;;
10335;SDS011;5213;53.548;9.930;2023-04-21T04:02:51;10.43;;;8.25;;
10335;SDS011;5213;53.548;9.930;2023-04-21T04:05:17;12.60;;;8.65;;
10335;SDS011;5213;53.548;9.930;2023-04-21T04:07:43;13.57;;;9.20;;
10335;SDS011;5213;53.548;9.930;2023-04-21T04:10:09;12.00;;;9.02;;
10335;SDS011;5213;53.548;9.930;2023-04-21T04:12:36;11.70;;;8.43;;
10335;SDS011;5213;53.548;9.930;2023-04-21T04:15:02;13.68;;;8.85;;
10335;SDS011;5213;53.548;9.930;2023-04-21T04:17:28;11.30;;;8.38;;
10335;SDS011;5213;53.548;9.930;2023-04-21T04:19:54;13.65;;;8.70;;
10335;SDS011;5213;53.548;9.930;2023-04-21T04:22:20;11.63;;;8.60;;
10335;SDS011;5213;53.548;9.930;2023-04-21T04:24:46;11.05;;;9.13;;
10335;SDS011;5213;53.548;9.930;2023-04-21T04:27:12;10.32;;;8.48;;
10335;SDS011;5213;53.548;9.930;2023-04-21T04:29:38;11.80;;;9.27;;
10335;SDS011;5213;53.548;9.930;2023-04-21T04:32:05;11.68;;;9.25;;
10335;SDS011;5213;53.548;9.930;2023-04-21T04:34:33;14.43;;;9.57;;
10335;SDS011;5213;53.548;9.930;2023-04-21T04:37:01;11.70;;;9.05;;
10335;SDS011;5213;53.548;9.930;2023-04-21T04:39:28;13.15;;;9.00;;
10335;SDS011;5213;53.548;9.930;2023-04-21T04:41:55;10.88;;;9.07;;
10335;SDS011;5213;53.548;9.930;2023-04-21T04:44:21;11.77;;;8.85;;
10335;SDS011;5213;53.548;9.930;2023-04-21T04:46:49;11.75;;;9.30;;
10335;SDS011;5213;53.548;9.930;2023-04-21T04:49:16;10.73;;;9.05;;
10335;SDS011;5213;53.548;9.930;2023-04-21T04:51:42;13.90;;;8.90;;
10335;SDS011;5213;53.548;9.930;2023-04-21T04:54:08;12.02;;;9.30;;
10335;SDS011;5213;53.548;9.930;2023-04-21T04:56:34;11.63;;;9.00;;
10335;SDS011;5213;53.548;9.930;2023-04-21T04:59:01;13.15;;;9.20;;
10335;SDS011;5213;53.548;9.930;2023-04-21T05:01:27;11.68;;;9.35;;
10335;SDS011;5213;53.548;9.930;2023-04-21T05:03:55;10.98;;;8.45;;
10335;SDS011;5213;53.548;9.930;2023-04-21T05:06:21;10.18;;;8.63;;
10335;SDS011;5213;53.548;9.930;2023-04-21T05:08:47;11.20;;;9.32;;
10335;SDS011;5213;53.548;9.930;2023-04-21T05:11:13;13.80;;;9.55;;
10335;SDS011;5213;53.548;9.930;2023-04-21T05:13:39;13.05;;;9.02;;
10335;SDS011;5213;53.548;9.930;2023-04-21T05:16:05;10.70;;;8.90;;
10335;SDS011;5213;53.548;9.930;2023-04-21T05:18:33;11.93;;;8.88;;
10335;SDS011;5213;53.548;9.930;2023-04-21T05:20:59;12.55;;;9.32;;
10335;SDS011;5213;53.548;9.930;2023-04-21T05:23:25;12.25;;;9.05;;
10335;SDS011;5213;53.548;9.930;2023-04-21T05:25:51;10.52;;;8.88;;
10335;SDS011;5213;53.548;9.930;2023-04-21T05:28:17;13.48;;;8.95;;
10335;SDS011;5213;53.548;9.930;2023-04-21T05:30:44;12.23;;;8.80;;
10335;SDS011;5213;53.548;9.930;2023-04-21T05:33:10;12.73;;;8.68;;
10335;SDS011;5213;53.548;9.930;2023-04-21T05:35:36;10.52;;;8.48;;
10335;SDS011;5213;53.548;9.930;2023-04-21T05:38:02;10.25;;;8.25;;
10335;SDS011;5213;53.548;9.930;2023-04-21T05:40:28;10.50;;;8.77;;
10335;SDS011;5213;53.548;9.930;2023-04-21T05:42:54;12.30;;;8.52;;
10335;SDS011;5213;53.548;9.930;2023-04-21T05:45:20;11.63;;;8.57;;
10335;SDS011;5213;53.548;9.930;2023-04-21T05:47:46;11.60;;;8.13;;
10335;SDS011;5213;53.548;9.930;2023-04-21T05:50:12;10.65;;;8.63;;
10335;SDS011;5213;53.548;9.930;2023-04-21T05:52:38;13.13;;;8.65;;
10335;SDS011;5213;53.548;9.930;2023-04-21T05:55:04;12.07;;;8.40;;
10335;SDS011;5213;53.548;9.930;2023-04-21T05:57:30;12.85;;;9.10;;
10335;SDS011;5213;53.548;9.930;2023-04-21T05:59:56;10.95;;;9.10;;
10335;SDS011;5213;53.548;9.930;2023-04-21T06:02:22;10.82;;;8.93;;
10335;SDS011;5213;53.548;9.930;2023-04-21T06:04:48;11.93;;;8.75;;
10335;SDS011;5213;53.548;9.930;2023-04-21T06:07:14;12.25;;;8.32;;
10335;SDS011;5213;53.548;9.930;2023-04-21T06:09:41;13.75;;;9.32;;
10335;SDS011;5213;53.548;9.930;2023-04-21T06:12:07;14.38;;;9.52;;
10335;SDS011;5213;53.548;9.930;2023-04-21T06:14:33;11.45;;;8.55;;
10335;SDS011;5213;53.548;9.930;2023-04-21T06:16:59;10.35;;;9.23;;
10335;SDS011;5213;53.548;9.930;2023-04-21T06:19:25;10.60;;;8.88;;
10335;SDS011;5213;53.548;9.930;2023-04-21T06:21:51;10.57;;;8.88;;
10335;SDS011;5213;53.548;9.930;2023-04-21T06:24:17;10.23;;;8.05;;
10335;SDS011;5213;53.548;9.930;2023-04-21T06:26:49;11.77;;;8.65;;
10335;SDS011;5213;53.548;9.930;2023-04-21T06:29:15;14.77;;;9.18;;
10335;SDS011;5213;53.548;9.930;2023-04-21T06:31:41;9.73;;;8.30;;
10335;SDS011;5213;53.548;9.930;2023-04-21T06:34:07;11.50;;;8.65;;
10335;SDS011;5213;53.548;9.930;2023-04-21T06:36:33;12.15;;;8.75;;
10335;SDS011;5213;53.548;9.930;2023-04-21T06:38:59;11.02;;;8.75;;
10335;SDS011;5213;53.548;9.930;2023-04-21T06:41:25;11.88;;;8.88;;
10335;SDS011;5213;53.548;9.930;2023-04-21T06:43:52;12.98;;;9.30;;
10335;SDS011;5213;53.548;9.930;2023-04-21T06:46:18;10.07;;;8.23;;
10335;SDS011;5213;53.548;9.930;2023-04-21T06:48:44;11.15;;;8.85;;
10335;SDS011;5213;53.548;9.930;2023-04-21T06:51:10;9.55;;;8.00;;
10335;SDS011;5213;53.548;9.930;2023-04-21T06:53:36;11.60;;;8.10;;
10335;SDS011;5213;53.548;9.930;2023-04-21T06:56:02;12.55;;;8.43;;
10335;SDS011;5213;53.548;9.930;2023-04-21T06:58:28;9.23;;;8.25;;
10335;SDS011;5213;53.548;9.930;2023-04-21T07:00:54;9.23;;;7.72;;
10335;SDS011;5213;53.548;9.930;2023-04-21T07:03:20;9.70;;;8.27;;
10335;SDS011;5213;53.548;9.930;2023-04-21T07:05:46;11.48;;;8.30;;
10335;SDS011;5213;53.548;9.930;2023-04-21T07:08:12;9.63;;;8.00;;
10335;SDS011;5213;53.548;9.930;2023-04-21T07:10:38;10.27;;;7.22;;
10335;SDS011;5213;53.548;9.930;2023-04-21T07:13:04;9.55;;;7.90;;
10335;SDS011;5213;53.548;9.930;2023-04-21T07:15:31;11.05;;;8.52;;
10335;SDS011;5213;53.548;9.930;2023-04-21T07:17:57;8.60;;;7.70;;
10335;SDS011;5213;53.548;9.930;2023-04-21T07:20:23;13.43;;;7.85;;
10335;SDS011;5213;53.548;9.930;2023-04-21T07:22:49;9.77;;;8.20;;
10335;SDS011;5213;53.548;9.930;2023-04-21T07:25:15;9.23;;;7.80;;
10335;SDS011;5213;53.548;9.930;2023-04-21T07:27:41;13.00;;;8.02;;
10335;SDS011;5213;53.548;9.930;2023-04-21T07:30:07;11.40;;;8.52;;
10335;SDS011;5213;53.548;9.930;2023-04-21T07:32:33;10.57;;;8.60;;
10335;SDS011;5213;53.548;9.930;2023-04-21T07:35:01;10.52;;;8.30;;
10335;SDS011;5213;53.548;9.930;2023-04-21T07:37:27;10.95;;;8.30;;
10335;SDS011;5213;53.548;9.930;2023-04-21T07:39:53;13.02;;;7.75;;
10335;SDS011;5213;53.548;9.930;2023-04-21T07:42:19;9.65;;;8.27;;
10335;SDS011;5213;53.548;9.930;2023-04-21T07:44:46;10.88;;;8.10;;
10335;SDS011;5213;53.548;9.930;2023-04-21T07:47:12;13.25;;;8.85;;
10335;SDS011;5213;53.548;9.930;2023-04-21T07:49:38;11.35;;;8.02;;
10335;SDS011;5213;53.548;9.930;2023-04-21T07:52:05;11.45;;;8.40;;
10335;SDS011;5213;53.548;9.930;2023-04-21T07:54:31;9.90;;;8.07;;
10335;SDS011;5213;53.548;9.930;2023-04-21T07:56:57;12.18;;;7.95;;
10335;SDS011;5213;53.548;9.930;2023-04-21T07:59:23;12.30;;;8.20;;
10335;SDS011;5213;53.548;9.930;2023-04-21T08:01:49;10.85;;;7.78;;
10335;SDS011;5213;53.548;9.930;2023-04-21T08:04:15;10.75;;;7.60;;
10335;SDS011;5213;53.548;9.930;2023-04-21T08:06:41;9.88;;;8.02;;
10335;SDS011;5213;53.548;9.930;2023-04-21T08:09:07;8.98;;;7.32;;
10335;SDS011;5213;53.548;9.930;2023-04-21T08:11:33;10.60;;;8.13;;
10335;SDS011;5213;53.548;9.930;2023-04-21T08:14:00;9.65;;;7.97;;
10335;SDS011;5213;53.548;9.930;2023-04-21T08:16:27;11.73;;;7.97;;
10335;SDS011;5213;53.548;9.930;2023-04-21T08:18:54;9.40;;;7.63;;
10335;SDS011;5213;53.548;9.930;2023-04-21T08:21:19;8.90;;;7.75;;
10335;SDS011;5213;53.548;9.930;2023-04-21T08:23:45;9.35;;;7.57;;
10335;SDS011;5213;53.548;9.930;2023-04-21T08:26:12;9.18;;;7.70;;
10335;SDS011;5213;53.548;9.930;2023-04-21T08:28:38;10.55;;;8.43;;
10335;SDS011;5213;53.548;9.930;2023-04-21T08:31:04;8.15;;;7.20;;
10335;SDS011;5213;53.548;9.930;2023-04-21T08:33:30;9.60;;;8.15;;
10335;SDS011;5213;53.548;9.930;2023-04-21T08:35:56;8.88;;;7.70;;
10335;SDS011;5213;53.548;9.930;2023-04-21T08:38:22;10.23;;;7.78;;
10335;SDS011;5213;53.548;9.930;2023-04-21T08:40:48;8.88;;;7.95;;
10335;SDS011;5213;53.548;9.930;2023-04-21T08:43:14;10.07;;;7.90;;
10335;SDS011;5213;53.548;9.930;2023-04-21T08:45:40;8.30;;;7.55;;
10335;SDS011;5213;53.548;9.930;2023-04-21T08:48:06;10.10;;;7.72;;
10335;SDS011;5213;53.548;9.930;2023-04-21T08:50:33;10.02;;;7.95;;
10335;SDS011;5213;53.548;9.930;2023-04-21T08:53:00;9.38;;;7.90;;
10335;SDS011;5213;53.548;9.930;2023-04-21T08:55:30;9.88;;;8.05;;
10335;SDS011;5213;53.548;9.930;2023-04-21T08:57:56;10.15;;;7.68;;
10335;SDS011;5213;53.548;9.930;2023-04-21T09:00:22;10.68;;;7.75;;
10335;SDS011;5213;53.548;9.930;2023-04-21T09:02:55;8.63;;;7.70;;
10335;SDS011;5213;53.548;9.930;2023-04-21T09:05:22;9.15;;;7.80;;
10335;SDS011;5213;53.548;9.930;2023-04-21T09:07:49;10.57;;;7.78;;
10335;SDS011;5213;53.548;9.930;2023-04-21T09:10:20;10.18;;;7.63;;
10335;SDS011;5213;53.548;9.930;2023-04-21T09:12:49;8.75;;;7.80;;
10335;SDS011;5213;53.548;9.930;2023-04-21T09:15:16;10.43;;;7.57;;
10335;SDS011;5213;53.548;9.930;2023-04-21T09:17:43;9.90;;;8.07;;
10335;SDS011;5213;53.548;9.930;2023-04-21T09:20:17;13.27;;;7.80;;
10335;SDS011;5213;53.548;9.930;2023-04-21T09:22:44;10.77;;;7.85;;
10335;SDS011;5213;53.548;9.930;2023-04-21T09:25:14;9.02;;;7.45;;
10335;SDS011;5213;53.548;9.930;2023-04-21T09:27:41;9.23;;;7.95;;
10335;SDS011;5213;53.548;9.930;2023-04-21T09:30:07;8.90;;;7.40;;
10335;SDS011;5213;53.548;9.930;2023-04-21T09:32:40;12.18;;;7.95;;
10335;SDS011;5213;53.548;9.930;2023-04-21T09:35:09;10.55;;;7.93;;
10335;SDS011;5213;53.548;9.930;2023-04-21T09:37:36;9.38;;;8.00;;
10335;SDS011;5213;53.548;9.930;2023-04-21T09:40:02;11.02;;;8.25;;
10335;SDS011;5213;53.548;9.930;2023-04-21T09:42:29;9.88;;;7.88;;
10335;SDS011;5213;53.548;9.930;2023-04-21T09:44:55;9.60;;;7.65;;
10335;SDS011;5213;53.548;9.930;2023-04-21T09:47:21;8.02;;;6.97;;
10335;SDS011;5213;53.548;9.930;2023-04-21T09:49:51;9.02;;;7.75;;
10335;SDS011;5213;53.548;9.930;2023-04-21T09:52:20;9.68;;;8.02;;
10335;SDS011;5213;53.548;9.930;2023-04-21T09:54:48;9.57;;;8.40;;
10335;SDS011;5213;53.548;9.930;2023-04-21T09:57:18;11.05;;;7.55;;
10335;SDS011;5213;53.548;9.930;2023-04-21T09:59:45;11.43;;;7.95;;
10335;SDS011;5213;53.548;9.930;2023-04-21T10:02:12;8.93;;;7.38;;
10335;SDS011;5213;53.548;9.930;2023-04-21T10:04:39;8.63;;;7.15;;
10335;SDS011;5213;53.548;9.930;2023-04-21T10:07:06;9.85;;;7.57;;
10335;SDS011;5213;53.548;9.930;2023-04-21T10:09:39;8.65;;;7.38;;
10335;SDS011;5213;53.548;9.930;2023-04-21T10:12:06;9.77;;;7.80;;
10335;SDS011;5213;53.548;9.930;2023-04-21T10:14:33;8.80;;;7.88;;
10335;SDS011;5213;53.548;9.930;2023-04-21T10:17:07;12.13;;;8.10;;
10335;SDS011;5213;53.548;9.930;2023-04-21T10:19:34;8.77;;;7.30;;
10335;SDS011;5213;53.548;9.930;2023-04-21T10:22:06;8.52;;;7.55;;
10335;SDS011;5213;53.548;9.930;2023-04-21T10:24:39;9.75;;;7.30;;
10335;SDS011;5213;53.548;9.930;2023-04-21T10:27:12;10.57;;;7.10;;
10335;SDS011;5213;53.548;9.930;2023-04-21T10:29:55;9.80;;;6.90;;
10335;SDS011;5213;53.548;9.930;2023-04-21T10:32:41;9.88;;;6.85;;
10335;SDS011;5213;53.548;9.930;2023-04-21T10:35:10;8.38;;;7.47;;
10335;SDS011;5213;53.548;9.930;2023-04-21T10:37:36;9.27;;;6.93;;
10335;SDS011;5213;53.548;9.930;2023-04-21T10:40:02;7.90;;;7.10;;
10335;SDS011;5213;53.548;9.930;2023-04-21T10:42:33;11.52;;;7.72;;
10335;SDS011;5213;53.548;9.930;2023-04-21T10:45:03;9.77;;;7.50;;
10335;SDS011;5213;53.548;9.930;2023-04-21T10:50:12;8.27;;;7.43;;
10335;SDS011;5213;53.548;9.930;2023-04-21T10:52:38;8.80;;;6.85;;
10335;SDS011;5213;53.548;9.930;2023-04-21T10:55:08;7.95;;;6.90;;
10335;SDS011;5213;53.548;9.930;2023-04-21T10:57:36;8.85;;;7.30;;
10335;SDS011;5213;53.548;9.930;2023-04-21T11:00:03;8.57;;;6.97;;
10335;SDS011;5213;53.548;9.930;2023-04-21T11:02:30;7.80;;;6.75;;
10335;SDS011;5213;53.548;9.930;2023-04-21T11:04:57;7.75;;;6.68;;
10335;SDS011;5213;53.548;9.930;2023-04-21T11:07:23;8.35;;;6.82;;
10335;SDS011;5213;53.548;9.930;2023-04-21T11:12:29;7.68;;;6.88;;
10335;SDS011;5213;53.548;9.930;2023-04-21T11:14:55;11.65;;;6.82;;
10335;SDS011;5213;53.548;9.930;2023-04-21T11:17:21;7.18;;;6.38;;
10335;SDS011;5213;53.548;9.930;2023-04-21T11:19:52;7.28;;;6.55;;
10335;SDS011;5213;53.548;9.930;2023-04-21T11:22:19;7.00;;;6.30;;
10335;SDS011;5213;53.548;9.930;2023-04-21T11:24:46;7.22;;;6.53;;
10335;SDS011;5213;53.548;9.930;2023-04-21T11:27:12;7.35;;;6.40;;
10335;SDS011;5213;53.548;9.930;2023-04-21T11:29:39;7.60;;;6.80;;
10335;SDS011;5213;53.548;9.930;2023-04-21T11:32:06;7.43;;;6.70;;
10335;SDS011;5213;53.548;9.930;2023-04-21T11:34:32;8.57;;;6.80;;
10335;SDS011;5213;53.548;9.930;2023-04-21T11:36:58;7.55;;;6.45;;
10335;SDS011;5213;53.548;9.930;2023-04-21T11:39:24;8.18;;;6.18;;
10335;SDS011;5213;53.548;9.930;2023-04-21T11:41:50;9.93;;;6.80;;
10335;SDS011;5213;53.548;9.930;2023-04-21T11:44:52;8.60;;;6.72;;
10335;SDS011;5213;53.548;9.930;2023-04-21T11:47:13;8.43;;;6.50;;
10335;SDS011;5213;53.548;9.930;2023-04-21T11:49:46;9.25;;;6.32;;
10335;SDS011;5213;53.548;9.930;2023-04-21T11:52:22;7.53;;;6.72;;
10335;SDS011;5213;53.548;9.930;2023-04-21T11:57:27;8.85;;;6.47;;
10335;SDS011;5213;53.548;9.930;2023-04-21T11:59:57;8.52;;;6.53;;
10335;SDS011;5213;53.548;9.930;2023-04-21T12:02:23;9.57;;;6.32;;
10335;SDS011;5213;53.548;9.930;2023-04-21T12:04:57;7.57;;;6.78;;
10335;SDS011;5213;53.548;9.930;2023-04-21T12:07:23;7.18;;;6.18;;
10335;SDS011;5213;53.548;9.930;2023-04-21T12:09:50;7.55;;;6.85;;
10335;SDS011;5213;53.548;9.930;2023-04-21T12:12:16;7.40;;;6.68;;
10335;SDS011;5213;53.548;9.930;2023-04-21T12:14:43;6.95;;;6.28;;
10335;SDS011;5213;53.548;9.930;2023-04-21T12:17:09;8.48;;;6.90;;
10335;SDS011;5213;53.548;9.930;2023-04-21T12:19:39;8.75;;;6.60;;
10335;SDS011;5213;53.548;9.930;2023-04-21T12:22:06;9.25;;;6.72;;
10335;SDS011;5213;53.548;9.930;2023-04-21T12:24:32;7.40;;;6.38;;
10335;SDS011;5213;53.548;9.930;2023-04-21T12:26:58;8.10;;;6.30;;
10335;SDS011;5213;53.548;9.930;2023-04-21T12:29:24;9.23;;;6.95;;
10335;SDS011;5213;53.548;9.930;2023-04-21T12:31:50;7.00;;;6.30;;
10335;SDS011;5213;53.548;9.930;2023-04-21T12:34:16;7.10;;;6.15;;
10335;SDS011;5213;53.548;9.930;2023-04-21T12:36:42;7.63;;;6.82;;
10335;SDS011;5213;53.548;9.930;2023-04-21T12:39:08;7.72;;;6.85;;
10335;SDS011;5213;53.548;9.930;2023-04-21T12:41:34;6.72;;;6.03;;
10335;SDS011;5213;53.548;9.930;2023-04-21T12:44:00;7.93;;;6.45;;
10335;SDS011;5213;53.548;9.930;2023-04-21T12:46:27;8.45;;;6.85;;
10335;SDS011;5213;53.548;9.930;2023-04-21T12:48:53;6.18;;;5.57;;
10335;SDS011;5213;53.548;9.930;2023-04-21T12:51:19;6.45;;;5.88;;
10335;SDS011;5213;53.548;9.930;2023-04-21T12:53:45;6.57;;;6.03;;
10335;SDS011;5213;53.548;9.930;2023-04-21T12:56:12;6.72;;;6.03;;
10335;SDS011;5213;53.548;9.930;2023-04-21T12:58:38;7.32;;;5.68;;
10335;SDS011;5213;53.548;9.930;2023-04-21T13:01:04;10.32;;;6.07;;
10335;SDS011;5213;53.548;9.930;2023-04-21T13:03:30;7.60;;;5.95;;
10335;SDS011;5213;53.548;9.930;2023-04-21T13:05:56;8.88;;;6.50;;
10335;SDS011;5213;53.548;9.930;2023-04-21T13:08:22;7.15;;;6.43;;
10335;SDS011;5213;53.548;9.930;2023-04-21T13:10:48;8.45;;;6.10;;
10335;SDS011;5213;53.548;9.930;2023-04-21T13:13:14;10.73;;;6.30;;
10335;SDS011;5213;53.548;9.930;2023-04-21T13:15:40;7.00;;;6.30;;
10335;SDS011;5213;53.548;9.930;2023-04-21T13:18:06;7.57;;;6.15;;
10335;SDS011;5213;53.548;9.930;2023-04-21T13:20:32;8.15;;;6.07;;
10335;SDS011;5213;53.548;9.930;2023-04-21T13:22:58;8.32;;;6.47;;
10335;SDS011;5213;53.548;9.930;2023-04-21T13:25:24;9.75;;;7.53;;
10335;SDS011;5213;53.548;9.930;2023-04-21T13:27:51;7.93;;;6.28;;
10335;SDS011;5213;53.548;9.930;2023-04-21T13:30:17;7.18;;;6.30;;
10335;SDS011;5213;53.548;9.930;2023-04-21T13:32:43;8.95;;;6.28;;
10335;SDS011;5213;53.548;9.930;2023-04-21T13:35:09;7.50;;;6.80;;
10335;SDS011;5213;53.548;9.930;2023-04-21T13:37:36;8.75;;;6.22;;
10335;SDS011;5213;53.548;9.930;2023-04-21T13:40:03;8.18;;;6.50;;
10335;SDS011;5213;53.548;9.930;2023-04-21T13:42:29;9.20;;;6.22;;
10335;SDS011;5213;53.548;9.930;2023-04-21T13:44:57;6.97;;;5.85;;
10335;SDS011;5213;53.548;9.930;2023-04-21T13:47:23;7.35;;;6.60;;
10335;SDS011;5213;53.548;9.930;2023-04-21T13:49:50;6.57;;;6.00;;
10335;SDS011;5213;53.548;9.930;2023-04-21T13:52:16;8.30;;;6.10;;
10335;SDS011;5213;53.548;9.930;2023-04-21T13:54:42;8.52;;;6.18;;
10335;SDS011;5213;53.548;9.930;2023-04-21T13:57:08;6.80;;;6.20;;
10335;SDS011;5213;53.548;9.930;2023-04-21T13:59:34;8.18;;;5.97;;
10335;SDS011;5213;53.548;9.930;2023-04-21T14:02:00;6.65;;;5.88;;
10335;SDS011;5213;53.548;9.930;2023-04-21T14:04:26;7.07;;;6.35;;
10335;SDS011;5213;53.548;9.930;2023-04-21T14:06:52;7.28;;;6.20;;
10335;SDS011;5213;53.548;9.930;2023-04-21T14:09:18;9.95;;;6.15;;
10335;SDS011;5213;53.548;9.930;2023-04-21T14:11:45;7.72;;;6.45;;
10335;SDS011;5213;53.548;9.930;2023-04-21T14:14:11;7.15;;;6.00;;
10335;SDS011;5213;53.548;9.930;2023-04-21T14:16:37;7.03;;;6.32;;
10335;SDS011;5213;53.548;9.930;2023-04-21T14:19:03;6.47;;;5.88;;
10335;SDS011;5213;53.548;9.930;2023-04-21T14:21:29;9.18;;;5.75;;
10335;SDS011;5213;53.548;9.930;2023-04-21T14:23:56;9.07;;;6.57;;
10335;SDS011;5213;53.548;9.930;2023-04-21T14:26:22;7.03;;;6.28;;
10335;SDS011;5213;53.548;9.930;2023-04-21T14:28:48;7.15;;;6.40;;
10335;SDS011;5213;53.548;9.930;2023-04-21T14:31:15;7.90;;;6.03;;
10335;SDS011;5213;53.548;9.930;2023-04-21T14:33:41;8.68;;;6.25;;
10335;SDS011;5213;53.548;9.930;2023-04-21T14:36:07;7.07;;;6.38;;
10335;SDS011;5213;53.548;9.930;2023-04-21T14:38:34;8.10;;;6.35;;
10335;SDS011;5213;53.548;9.930;2023-04-21T14:41:00;8.30;;;6.07;;
10335;SDS011;5213;53.548;9.930;2023-04-21T14:43:26;6.97;;;5.80;;
10335;SDS011;5213;53.548;9.930;2023-04-21T14:45:52;6.88;;;6.28;;
10335;SDS011;5213;53.548;9.930;2023-04-21T14:48:19;7.22;;;6.63;;
10335;SDS011;5213;53.548;9.930;2023-04-21T14:50:45;6.90;;;6.30;;
10335;SDS011;5213;53.548;9.930;2023-04-21T14:53:11;6.78;;;6.18;;
10335;SDS011;5213;53.548;9.930;2023-04-21T14:55:37;7.70;;;6.88;;
10335;SDS011;5213;53.548;9.930;2023-04-21T14:58:03;8.15;;;6.53;;